createdAt,value
2019-04-23T00:03:16.912Z,1999.90
2019-04-23T00:08:17.476Z,1999.90
2019-04-23T00:13:30.462Z,1999.90
2019-04-23T00:18:36.924Z,1999.90
2019-04-23T00:23:46.359Z,1999.90
2019-04-23T00:28:42.175Z,1999.90
2019-04-23T00:33:44.842Z,1863.20
2019-04-23T00:38:50.078Z,1999.90
2019-04-23T00:49:15.616Z,1788.90
2019-04-23T00:54:12.280Z,1965.23
2019-04-23T00:59:12.442Z,1999.90
2019-04-23T01:04:18.575Z,1999.63
2019-04-23T01:09:29.612Z,1946.93
2019-04-23T01:14:34.457Z,1950.07
2019-04-23T01:19:52.947Z,1999.90
2019-04-23T01:24:44.101Z,1633.90
2019-04-23T01:36:01.026Z,1999.90
2019-04-23T01:40:28.404Z,1684.87
2019-04-23T01:45:35.920Z,1999.90
2019-04-23T01:50:46.425Z,1999.90
2019-04-23T02:00:49.440Z,1716.43
2019-04-23T02:05:58.875Z,1999.90
2019-04-23T02:16:04.650Z,1999.90
2019-04-23T02:21:11.833Z,1999.90
2019-04-23T02:26:26.203Z,1999.90
2019-04-23T02:36:40.557Z,1999.90
2019-04-23T02:46:56.806Z,1999.90
2019-04-23T02:56:57.304Z,1999.90
2019-04-23T03:02:28.373Z,1999.90
2019-04-23T03:07:14.164Z,1999.90
2019-04-23T03:12:24.956Z,1999.90
2019-04-23T03:17:33.053Z,1999.90
2019-04-23T03:23:13.195Z,1999.90
2019-04-23T03:28:23.228Z,1999.90
2019-04-23T03:38:41.738Z,1999.90
2019-04-23T03:43:33.682Z,1999.90
2019-04-23T03:58:47.860Z,1999.90
2019-04-23T04:09:11.795Z,1999.90
2019-04-23T04:19:18.332Z,1999.90
2019-04-23T04:24:37.330Z,1838.27
2019-04-23T04:29:37.538Z,1315.23
2019-04-23T04:35:05.557Z,671.57
2019-04-23T04:39:43.160Z,732.17
2019-04-23T04:49:55.778Z,265.07
2019-04-23T04:54:55.871Z,126.23
2019-04-23T05:00:21.567Z,984.10
2019-04-23T05:05:20.678Z,115.47
2019-04-23T05:11:28.840Z,205.03
2019-04-23T05:15:28.356Z,284.33
2019-04-23T05:25:25.487Z,1328.47
2019-04-23T05:30:40.691Z,422.27
2019-04-23T05:36:04.567Z,112.17
2019-04-23T05:40:53.619Z,112.57
2019-04-23T05:45:46.735Z,151.53
2019-04-23T05:51:06.022Z,138.00
2019-04-23T05:56:01.541Z,199.13
2019-04-23T06:17:03.864Z,322.83
2019-04-23T06:27:01.721Z,268.20
2019-04-23T06:31:58.529Z,405.17
2019-04-23T06:37:09.752Z,220.73
2019-04-23T06:42:13.524Z,284.50
2019-04-23T06:47:21.943Z,220.73
2019-04-23T06:52:21.575Z,473.10
2019-04-23T06:57:26.970Z,792.20
2019-04-23T07:02:38.796Z,419.07
2019-04-23T07:17:54.083Z,338.10
2019-04-23T07:23:15.727Z,707.63
2019-04-23T07:28:14.942Z,120.17
2019-04-23T07:33:18.864Z,909.83
2019-04-23T07:38:40.663Z,191.57
2019-04-23T07:43:54.435Z,932.00
2019-04-23T07:48:57.963Z,859.83
2019-04-23T07:54:08.091Z,1033.60
2019-04-23T07:59:16.054Z,809.40
2019-04-23T08:04:16.881Z,1240.87
2019-04-23T08:09:24.347Z,682.07
2019-04-23T08:14:36.086Z,129.17
2019-04-23T08:19:47.876Z,1012.80
2019-04-23T08:25:03.304Z,742.03
2019-04-23T08:29:56.069Z,631.90
2019-04-23T08:40:06.723Z,766.00
2019-04-23T08:50:35.437Z,134.07
2019-04-23T08:55:39.956Z,116.80
2019-04-23T09:05:57.696Z,542.87
2019-04-23T09:11:04.775Z,410.67
2019-04-23T09:16:05.180Z,321.03
2019-04-23T09:21:08.996Z,550.00
2019-04-23T09:26:08.286Z,714.80
2019-04-23T09:36:40.514Z,120.43
2019-04-23T09:42:16.199Z,423.17
2019-04-23T09:47:42.019Z,272.73
2019-04-23T09:52:48.811Z,179.20
2019-04-23T09:57:51.574Z,409.67
2019-04-23T10:02:41.218Z,147.43
2019-04-23T10:07:40.576Z,243.00
2019-04-23T10:12:35.733Z,198.90
2019-04-23T10:17:40.262Z,160.30
2019-04-23T10:22:44.319Z,330.90
2019-04-23T10:27:55.045Z,341.40
2019-04-23T10:32:53.802Z,661.07
2019-04-23T10:38:03.871Z,216.37
2019-04-23T10:43:03.903Z,188.57
2019-04-23T10:49:00.712Z,138.50
2019-04-23T10:54:16.534Z,150.87
2019-04-23T10:59:12.002Z,154.40
2019-04-23T11:04:34.237Z,668.80
2019-04-23T11:14:33.839Z,244.43
2019-04-23T11:19:45.842Z,256.37
2019-04-23T11:24:41.902Z,255.77
2019-04-23T11:45:10.558Z,209.80
2019-04-23T11:50:12.308Z,195.30
2019-04-23T11:55:26.182Z,294.30
2019-04-23T12:06:04.159Z,252.47
2019-04-23T12:11:15.210Z,470.40
2019-04-23T12:16:00.536Z,146.70
2019-04-23T12:21:22.608Z,253.50
2019-04-23T12:26:34.171Z,521.80
2019-04-23T12:31:34.170Z,587.30
2019-04-23T12:41:54.678Z,245.97
2019-04-23T12:47:04.821Z,390.17
2019-04-23T12:52:14.296Z,629.27
2019-04-23T12:57:18.579Z,301.17
2019-04-23T13:02:27.441Z,610.77
2019-04-23T13:07:25.801Z,688.43
2019-04-23T13:12:36.185Z,330.97
2019-04-23T13:17:50.563Z,1015.77
2019-04-23T13:22:52.929Z,460.43
2019-04-23T13:27:53.513Z,242.20
2019-04-23T13:32:58.941Z,145.53
2019-04-23T13:38:08.139Z,504.63
2019-04-23T13:53:28.791Z,558.97
2019-04-23T13:58:34.475Z,137.17
2019-04-23T14:03:33.697Z,295.63
2019-04-23T14:13:44.083Z,174.33
2019-04-23T14:24:03.285Z,1892.47
2019-04-23T14:28:51.239Z,1999.90
2019-04-23T14:34:25.427Z,711.63
2019-04-23T14:39:05.767Z,549.77
2019-04-23T14:44:18.580Z,454.37
2019-04-23T14:49:36.082Z,786.73
2019-04-23T14:55:11.441Z,1356.57
2019-04-23T14:59:46.938Z,937.27
2019-04-23T15:04:54.489Z,1027.87
2019-04-23T15:10:04.578Z,1999.90
2019-04-23T15:15:10.345Z,1089.37
2019-04-23T15:25:30.290Z,1999.90
2019-04-23T15:27:08.535Z,1999.90
2019-04-23T15:30:17.561Z,1999.90
2019-04-23T15:35:55.755Z,1602.30
2019-04-23T15:40:34.145Z,837.83
2019-04-23T15:50:51.712Z,1112.00
2019-04-23T15:55:51.691Z,1403.37
2019-04-23T16:06:02.912Z,1999.90
2019-04-23T16:16:45.395Z,1999.90
2019-04-23T16:21:58.429Z,1999.90
2019-04-23T16:26:58.011Z,1727.37
2019-04-23T16:32:04.051Z,1543.23
2019-04-23T16:42:11.546Z,1999.90
2019-04-23T16:52:24.508Z,1660.63
2019-04-23T16:57:33.259Z,1999.90
2019-04-23T17:02:40.555Z,1999.90
2019-04-23T17:07:36.284Z,1999.90
2019-04-23T17:12:46.289Z,1746.50
2019-04-23T17:17:45.145Z,1999.90
2019-04-23T17:23:00.152Z,1999.90
2019-04-23T17:28:05.602Z,1999.90
2019-04-23T17:33:27.225Z,1999.90
2019-04-23T17:38:24.864Z,1999.90
2019-04-23T17:43:26.887Z,1999.90
2019-04-23T17:48:32.825Z,1999.90
2019-04-23T17:53:42.508Z,1991.33
2019-04-23T17:58:43.983Z,1999.90
2019-04-23T18:09:00.509Z,1999.90
2019-04-23T18:14:02.324Z,1978.00
2019-04-23T18:19:10.329Z,1999.90
2019-04-23T18:24:23.399Z,1780.13
2019-04-23T18:34:48.930Z,1561.90
2019-04-23T18:44:48.491Z,1999.90
2019-04-23T18:49:56.872Z,1999.90
2019-04-23T18:55:04.079Z,1999.90
2019-04-23T19:00:16.805Z,1999.90
2019-04-23T19:05:34.522Z,1999.90
2019-04-23T19:10:31.700Z,1795.30
2019-04-23T19:15:37.930Z,1404.40
2019-04-23T19:25:46.823Z,1433.27
2019-04-23T19:31:07.359Z,1999.90
2019-04-23T19:36:19.048Z,1789.60
2019-04-23T19:41:23.571Z,1999.90
2019-04-23T19:46:44.999Z,1360.50
2019-04-23T19:51:33.797Z,1664.13
2019-04-23T19:56:46.254Z,1665.00
2019-04-23T20:01:47.212Z,1570.50
2019-04-23T20:11:54.963Z,1504.43
2019-04-23T20:17:23.259Z,1325.13
2019-04-23T20:27:18.045Z,1254.07
2019-04-23T20:31:33.487Z,1999.90
2019-04-23T20:42:34.739Z,1265.03
2019-04-23T20:47:48.653Z,1336.30
2019-04-23T20:52:46.543Z,1398.37
2019-04-23T20:58:02.238Z,1251.97
2019-04-23T21:03:31.185Z,1223.47
2019-04-23T21:08:30.892Z,1208.23
2019-04-23T21:13:50.645Z,1268.33
2019-04-23T21:18:37.881Z,1308.57
2019-04-23T21:23:45.771Z,1999.90
2019-04-23T21:28:58.680Z,1693.43
2019-04-23T21:34:05.095Z,1030.47
2019-04-23T21:39:18.878Z,949.50
2019-04-23T21:44:28.891Z,1220.83
2019-04-23T21:49:40.765Z,1432.60
2019-04-23T21:54:29.254Z,1053.20
2019-04-23T21:59:39.591Z,1116.23
2019-04-23T22:04:44.845Z,1032.37
2019-04-23T22:20:03.969Z,1456.13
2019-04-23T22:24:59.169Z,1073.00
2019-04-23T22:30:02.908Z,1999.90
2019-04-23T22:35:16.370Z,1398.83
2019-04-23T22:40:18.152Z,1143.47
2019-04-23T22:45:26.842Z,1278.63
2019-04-23T22:55:40.533Z,1999.90
2019-04-23T23:00:55.627Z,908.60
2019-04-23T23:06:11.016Z,1170.63
2019-04-23T23:11:02.332Z,1075.23
2019-04-23T23:16:12.600Z,1310.07
2019-04-23T23:21:12.092Z,1361.20
2019-04-23T23:26:26.765Z,957.43
2019-04-23T23:31:30.157Z,1153.13
2019-04-23T23:41:42.958Z,1064.97
2019-04-23T23:51:54.069Z,774.13
